createdAt,value
2023-07-25T00:00:11.941Z,40.83
2023-07-25T00:03:18.231Z,41.34
2023-07-25T00:06:24.202Z,41.54
2023-07-25T00:09:31.948Z,41.57
2023-07-25T00:12:37.705Z,41.41
2023-07-25T00:15:43.217Z,41.34
2023-07-25T00:18:48.952Z,41.36
2023-07-25T00:21:55.967Z,41.52
2023-07-25T00:25:02.302Z,41.65
2023-07-25T00:28:08.101Z,41.73
2023-07-25T00:31:22.880Z,41.83
2023-07-25T00:34:29.147Z,42.25
2023-07-25T00:37:34.907Z,42.45
2023-07-25T00:40:40.012Z,42.47
2023-07-25T00:43:39.163Z,42.49
2023-07-25T00:46:45.809Z,42.29
2023-07-25T00:49:51.887Z,41.99
2023-07-25T00:52:57.963Z,41.89
2023-07-25T00:56:03.941Z,41.84
2023-07-25T00:59:11.112Z,41.90
2023-07-25T01:02:17.682Z,42.10
2023-07-25T01:05:24.757Z,42.02
2023-07-25T01:08:30.939Z,41.84
2023-07-25T01:11:37.665Z,41.76
2023-07-25T01:14:47.073Z,41.48
2023-07-25T01:17:54.788Z,41.60
2023-07-25T01:21:01.833Z,41.48
2023-07-25T01:24:06.901Z,41.70
2023-07-25T01:27:13.200Z,41.73
2023-07-25T01:30:20.295Z,42.06
2023-07-25T01:33:28.684Z,42.51
2023-07-25T01:36:34.368Z,42.64
2023-07-25T01:39:40.218Z,42.43
2023-07-25T01:42:45.837Z,42.51
2023-07-25T01:45:52.631Z,42.50
2023-07-25T01:48:58.848Z,42.75
2023-07-25T01:52:04.065Z,42.88
2023-07-25T01:55:11.907Z,42.77
2023-07-25T01:58:21.320Z,43.02
2023-07-25T02:01:28.419Z,43.36
2023-07-25T02:04:20.348Z,42.86
2023-07-25T02:07:27.025Z,43.30
2023-07-25T02:10:35.701Z,43.40
2023-07-25T02:13:40.961Z,43.41
2023-07-25T02:16:48.685Z,43.48
2023-07-25T02:19:54.312Z,43.16
2023-07-25T02:22:53.301Z,43.14
2023-07-25T02:26:00.048Z,43.10
2023-07-25T02:29:06.410Z,43.04
2023-07-25T02:32:12.687Z,43.10
2023-07-25T02:35:18.430Z,42.61
2023-07-25T02:38:23.560Z,42.61
2023-07-25T02:41:30.519Z,42.16
2023-07-25T02:44:37.345Z,41.48
2023-07-25T02:47:44.012Z,41.13
2023-07-25T02:50:49.319Z,40.63
2023-07-25T02:53:56.003Z,40.05
2023-07-25T02:57:01.603Z,39.51
2023-07-25T03:00:07.612Z,38.97
2023-07-25T03:03:13.269Z,38.55
2023-07-25T03:06:21.455Z,38.20
2023-07-25T03:09:28.389Z,37.88
2023-07-25T03:12:34.235Z,37.65
2023-07-25T03:15:40.868Z,37.11
2023-07-25T03:18:46.102Z,37.38
2023-07-25T03:21:51.642Z,36.59
2023-07-25T03:24:58.078Z,36.37
2023-07-25T03:28:04.360Z,36.09
2023-07-25T03:31:10.488Z,35.60
2023-07-25T03:34:16.777Z,35.41
2023-07-25T03:37:15.535Z,35.84
2023-07-25T03:40:08.018Z,36.17
2023-07-25T03:43:14.973Z,36.03
2023-07-25T03:46:20.713Z,36.11
2023-07-25T03:49:25.914Z,35.87
2023-07-25T03:52:31.002Z,35.71
2023-07-25T03:55:36.919Z,35.85
2023-07-25T03:58:43.149Z,35.69
2023-07-25T04:01:48.898Z,36.06
2023-07-25T04:04:55.582Z,35.67
2023-07-25T04:08:01.456Z,35.60
2023-07-25T04:11:07.067Z,35.34
2023-07-25T04:14:12.533Z,35.37
2023-07-25T04:17:18.133Z,35.38
2023-07-25T04:20:24.745Z,35.45
2023-07-25T04:23:29.541Z,35.57
2023-07-25T04:26:34.444Z,35.64
2023-07-25T04:29:40.329Z,35.71
2023-07-25T04:32:47.072Z,35.47
2023-07-25T04:35:54.957Z,35.21
2023-07-25T04:39:00.562Z,35.40
2023-07-25T04:42:06.656Z,35.24
2023-07-25T04:45:12.410Z,35.11
2023-07-25T04:48:17.404Z,34.87
2023-07-25T04:51:23.499Z,34.29
2023-07-25T04:54:30.119Z,33.86
2023-07-25T04:57:36.342Z,33.88
2023-07-25T05:00:35.288Z,33.05
2023-07-25T05:03:40.651Z,32.53
2023-07-25T05:06:47.436Z,32.64
2023-07-25T05:09:53.934Z,32.81
2023-07-25T05:12:53.341Z,32.36
2023-07-25T05:15:47.975Z,32.17
2023-07-25T05:18:56.325Z,32.13
2023-07-25T05:22:01.449Z,32.56
2023-07-25T05:25:07.818Z,31.59
2023-07-25T05:28:14.043Z,31.31
2023-07-25T05:31:19.641Z,30.89
2023-07-25T05:34:25.831Z,31.03
2023-07-25T05:37:36.683Z,30.62
2023-07-25T05:40:45.535Z,30.81
2023-07-25T05:43:53.089Z,30.78
2023-07-25T05:46:59.763Z,30.12
2023-07-25T05:50:06.284Z,29.96
2023-07-25T05:53:12.377Z,30.23
2023-07-25T05:56:17.999Z,30.14
2023-07-25T05:59:23.342Z,30.07
2023-07-25T06:02:29.601Z,30.45
2023-07-25T06:05:35.965Z,29.21
2023-07-25T06:08:42.388Z,29.15
2023-07-25T06:11:47.743Z,29.24
2023-07-25T06:14:53.785Z,28.12
2023-07-25T06:18:00.133Z,27.50
2023-07-25T06:21:06.232Z,27.64
2023-07-25T06:24:13.976Z,27.64
2023-07-25T06:27:19.182Z,27.07
2023-07-25T06:30:25.442Z,27.07
2023-07-25T06:33:30.743Z,28.38
2023-07-25T06:36:37.149Z,28.34
2023-07-25T06:39:42.381Z,28.34
2023-07-25T06:42:42.932Z,27.33
2023-07-25T06:45:37.596Z,27.33
2023-07-25T06:48:42.658Z,26.76
2023-07-25T06:51:49.024Z,27.00
2023-07-25T06:54:56.038Z,26.03
2023-07-25T06:58:03.184Z,26.68
2023-07-25T07:01:09.835Z,27.06
2023-07-25T07:04:15.882Z,26.49
2023-07-25T07:07:21.046Z,26.61
2023-07-25T07:10:41.150Z,26.34
2023-07-25T07:13:48.769Z,26.45
2023-07-25T07:16:55.305Z,26.10
2023-07-25T07:20:02.782Z,25.92
2023-07-25T07:23:09.290Z,25.83
2023-07-25T07:26:15.817Z,26.28
2023-07-25T07:29:21.768Z,26.13
2023-07-25T07:32:27.072Z,26.26
2023-07-25T07:35:33.665Z,26.06
2023-07-25T07:38:40.196Z,26.02
2023-07-25T07:41:46.383Z,24.89
2023-07-25T07:44:52.235Z,25.30
2023-07-25T07:47:58.412Z,25.12
2023-07-25T07:51:04.024Z,25.08
2023-07-25T07:54:09.308Z,25.10
2023-07-25T07:57:14.588Z,24.58
2023-07-25T08:00:21.909Z,25.21
2023-07-25T08:03:28.554Z,24.55
2023-07-25T08:06:35.891Z,24.47
2023-07-25T08:09:42.661Z,24.88
2023-07-25T08:12:48.950Z,24.37
2023-07-25T08:15:55.897Z,23.95
2023-07-25T08:18:54.223Z,23.94
2023-07-25T08:21:41.402Z,24.38
2023-07-25T08:24:53.964Z,24.37
2023-07-25T08:28:00.176Z,24.50
2023-07-25T08:31:19.981Z,23.95
2023-07-25T08:34:24.888Z,24.31
2023-07-25T08:37:33.381Z,23.78
2023-07-25T08:40:38.085Z,23.27
2023-07-25T08:43:43.509Z,22.88
2023-07-25T08:46:48.463Z,23.40
2023-07-25T08:49:57.223Z,23.37
2023-07-25T08:53:04.696Z,22.33
2023-07-25T08:56:12.508Z,23.02
2023-07-25T08:59:18.780Z,22.52
2023-07-25T09:02:18.285Z,22.20
2023-07-25T09:05:11.384Z,22.28
2023-07-25T09:08:17.822Z,22.26
2023-07-25T09:11:24.274Z,22.46
2023-07-25T09:14:29.971Z,22.26
2023-07-25T09:17:35.085Z,21.85
2023-07-25T09:20:41.226Z,22.25
2023-07-25T09:23:48.910Z,22.30
2023-07-25T09:26:54.487Z,22.47
2023-07-25T09:29:59.870Z,22.53
2023-07-25T09:33:05.445Z,22.29
2023-07-25T09:36:10.869Z,22.55
2023-07-25T09:39:17.674Z,22.23
2023-07-25T09:42:24.148Z,22.74
2023-07-25T09:45:29.862Z,22.99
2023-07-25T09:48:36.343Z,22.75
2023-07-25T09:51:42.520Z,23.38
2023-07-25T09:54:47.794Z,23.77
2023-07-25T09:57:55.321Z,23.93
2023-07-25T10:01:01.093Z,23.32
2023-07-25T10:04:06.235Z,23.26
2023-07-25T10:07:14.472Z,23.62
2023-07-25T10:13:33.570Z,23.89
2023-07-25T10:16:32.743Z,24.36
2023-07-25T10:19:37.769Z,24.51
2023-07-25T10:22:54.790Z,24.49
2023-07-25T10:26:02.282Z,24.49
2023-07-25T10:29:07.624Z,24.45
2023-07-25T10:32:13.510Z,24.67
2023-07-25T10:35:19.769Z,24.35
2023-07-25T10:38:28.321Z,24.30
2023-07-25T10:41:34.721Z,24.14
2023-07-25T10:44:52.113Z,24.19
2023-07-25T10:48:01.256Z,24.02
2023-07-25T10:51:06.600Z,23.95
2023-07-25T10:54:28.280Z,23.64
2023-07-25T10:57:34.901Z,23.23
2023-07-25T11:00:54.477Z,23.32
2023-07-25T11:04:00.269Z,22.85
2023-07-25T11:07:06.820Z,23.26
2023-07-25T11:10:20.100Z,23.57
2023-07-25T11:13:25.589Z,23.45
2023-07-25T11:16:30.705Z,23.48
2023-07-25T11:19:43.678Z,23.14
2023-07-25T11:22:49.448Z,23.34
2023-07-25T11:25:55.483Z,23.19
2023-07-25T11:29:01.409Z,23.36
2023-07-25T11:32:10.639Z,23.63
2023-07-25T11:35:10.660Z,23.58
2023-07-25T11:38:17.402Z,23.68
2023-07-25T11:41:23.699Z,23.38
2023-07-25T11:44:32.892Z,23.57
2023-07-25T11:47:38.678Z,23.37
2023-07-25T11:50:43.859Z,22.96
2023-07-25T11:53:48.386Z,22.66
2023-07-25T11:56:54.273Z,23.18
2023-07-25T11:59:59.845Z,23.25
2023-07-25T12:03:05.981Z,23.00
2023-07-25T12:06:14.177Z,23.32
2023-07-25T12:09:19.586Z,22.98
2023-07-25T12:12:31.389Z,23.08
2023-07-25T12:15:39.196Z,22.80
2023-07-25T12:18:46.258Z,22.77
2023-07-25T12:21:55.028Z,23.24
2023-07-25T12:25:01.620Z,23.04
2023-07-25T12:28:06.799Z,23.12
2023-07-25T12:31:11.991Z,23.11
2023-07-25T12:34:17.377Z,23.26
2023-07-25T12:37:24.124Z,23.24
2023-07-25T12:40:30.191Z,23.48
2023-07-25T12:43:36.750Z,23.50
2023-07-25T12:46:45.781Z,23.14
2023-07-25T12:49:52.278Z,23.38
2023-07-25T12:52:59.670Z,23.48
2023-07-25T12:56:05.428Z,23.61
2023-07-25T12:59:12.099Z,23.34
2023-07-25T13:02:18.032Z,23.14
2023-07-25T13:05:24.015Z,23.39
2023-07-25T13:08:29.465Z,22.72
2023-07-25T13:11:36.302Z,22.76
2023-07-25T13:14:42.079Z,22.98
2023-07-25T13:17:49.751Z,22.96
2023-07-25T13:20:56.024Z,23.07
2023-07-25T13:24:01.010Z,22.78
2023-07-25T13:27:08.792Z,23.05
2023-07-25T13:30:14.820Z,23.06
2023-07-25T13:33:20.481Z,23.03
2023-07-25T13:36:26.923Z,23.25
2023-07-25T13:39:33.764Z,22.99
2023-07-25T13:42:42.248Z,22.61
2023-07-25T13:45:53.274Z,22.34
2023-07-25T13:48:59.671Z,22.55
2023-07-25T13:52:05.978Z,23.11
2023-07-25T13:55:04.732Z,23.36
2023-07-25T14:01:18.670Z,23.39
2023-07-25T14:04:25.473Z,23.49
2023-07-25T14:07:33.315Z,23.46
2023-07-25T14:10:41.778Z,23.60
2023-07-25T14:13:48.006Z,23.90
2023-07-25T14:16:53.949Z,24.39
2023-07-25T14:20:00.343Z,24.44
2023-07-25T14:23:05.815Z,24.48
2023-07-25T14:26:11.510Z,24.63
2023-07-25T14:29:17.932Z,24.89
2023-07-25T14:32:25.797Z,25.30
2023-07-25T14:35:32.524Z,25.05
2023-07-25T14:38:38.748Z,25.10
2023-07-25T14:41:44.796Z,25.20
2023-07-25T14:44:51.278Z,24.80
2023-07-25T14:47:51.421Z,24.95
2023-07-25T14:50:57.580Z,24.77
2023-07-25T14:54:02.778Z,25.14
2023-07-25T14:57:07.536Z,25.35
2023-07-25T15:00:13.244Z,25.35
2023-07-25T15:03:19.678Z,25.27
2023-07-25T15:06:26.153Z,25.50
2023-07-25T15:09:32.117Z,25.60
2023-07-25T15:12:37.978Z,25.76
2023-07-25T15:15:44.176Z,26.08
2023-07-25T15:18:53.801Z,25.94
2023-07-25T15:22:00.519Z,25.98
2023-07-25T15:25:07.042Z,25.80
2023-07-25T15:28:12.240Z,25.92
2023-07-25T15:31:18.052Z,26.29
2023-07-25T15:34:23.395Z,26.22
2023-07-25T15:37:24.181Z,26.73
2023-07-25T15:40:17.893Z,26.68
2023-07-25T15:43:16.619Z,26.68
2023-07-25T15:46:24.917Z,26.74
2023-07-25T15:49:24.384Z,26.70
2023-07-25T15:52:31.266Z,26.79
2023-07-25T15:55:37.003Z,27.02
2023-07-25T15:58:43.580Z,27.19
2023-07-25T16:01:49.632Z,26.86
2023-07-25T16:04:55.963Z,26.61
2023-07-25T16:08:01.182Z,26.31
2023-07-25T16:11:06.565Z,26.04
2023-07-25T16:14:12.300Z,25.75
2023-07-25T16:17:18.041Z,25.69
2023-07-25T16:20:24.528Z,25.52
2023-07-25T16:23:29.941Z,25.50
2023-07-25T16:26:36.031Z,25.70
2023-07-25T16:29:41.345Z,25.81
2023-07-25T16:32:47.938Z,25.93
2023-07-25T16:35:55.524Z,25.98
2023-07-25T16:39:01.759Z,25.53
2023-07-25T16:42:11.088Z,25.63
2023-07-25T16:45:18.434Z,25.89
2023-07-25T16:48:24.883Z,25.92
2023-07-25T16:51:30.732Z,26.17
2023-07-25T16:54:36.361Z,26.14
2023-07-25T16:57:43.640Z,26.09
2023-07-25T17:00:49.477Z,26.11
2023-07-25T17:03:54.634Z,26.18
2023-07-25T17:07:00.232Z,26.18
2023-07-25T17:13:10.958Z,26.51
2023-07-25T17:16:17.600Z,26.39
2023-07-25T17:19:22.889Z,26.40
2023-07-25T17:22:29.933Z,26.60
2023-07-25T17:25:34.576Z,26.96
2023-07-25T17:28:40.331Z,27.74
2023-07-25T17:31:45.576Z,27.91
2023-07-25T17:34:51.914Z,28.18
2023-07-25T17:37:57.763Z,28.49
2023-07-25T17:41:04.562Z,28.72
2023-07-25T17:44:03.380Z,29.27
2023-07-25T17:47:08.827Z,29.65
2023-07-25T17:50:14.406Z,30.03
2023-07-25T17:53:20.146Z,30.36
2023-07-25T17:56:26.133Z,30.40
2023-07-25T17:59:32.238Z,30.72
2023-07-25T18:02:37.832Z,31.07
2023-07-25T18:05:43.198Z,31.39
2023-07-25T18:08:49.134Z,31.02
2023-07-25T18:11:54.744Z,31.05
2023-07-25T18:15:00.642Z,30.99
2023-07-25T18:18:06.565Z,30.99
2023-07-25T18:21:12.526Z,30.93
2023-07-25T18:24:18.932Z,30.89
2023-07-25T18:27:25.721Z,30.93
2023-07-25T18:30:32.141Z,30.97
2023-07-25T18:33:39.074Z,30.97
2023-07-25T18:36:45.026Z,31.02
2023-07-25T18:39:51.976Z,31.37
2023-07-25T18:42:57.652Z,31.58
2023-07-25T18:46:03.492Z,31.42
2023-07-25T18:49:10.063Z,31.15
2023-07-25T18:52:15.549Z,31.20
2023-07-25T18:55:22.946Z,31.29
2023-07-25T18:58:49.202Z,31.75
2023-07-25T19:01:57.874Z,31.64
2023-07-25T19:05:03.193Z,31.76
2023-07-25T19:08:09.882Z,32.17
2023-07-25T19:11:15.643Z,32.35
2023-07-25T19:14:22.342Z,32.58
2023-07-25T19:17:27.527Z,32.84
2023-07-25T19:20:33.874Z,33.10
2023-07-25T19:23:40.755Z,33.30
2023-07-25T19:26:47.313Z,33.30
2023-07-25T19:29:54.180Z,33.26
2023-07-25T19:33:00.866Z,33.18
2023-07-25T19:36:10.535Z,33.32
2023-07-25T19:39:16.514Z,33.35
2023-07-25T19:42:23.258Z,33.67
2023-07-25T19:45:29.095Z,34.02
2023-07-25T19:48:35.449Z,33.93
2023-07-25T19:51:40.903Z,34.14
2023-07-25T19:54:47.592Z,34.32
2023-07-25T19:57:54.170Z,34.46
2023-07-25T20:00:59.512Z,35.00
2023-07-25T20:04:08.140Z,35.46
2023-07-25T20:07:15.867Z,35.62
2023-07-25T20:10:35.551Z,35.80
2023-07-25T20:13:39.976Z,36.05
2023-07-25T20:16:46.314Z,36.48
2023-07-25T20:19:51.986Z,36.79
2023-07-25T20:22:58.913Z,37.03
2023-07-25T20:26:05.315Z,37.20
2023-07-25T20:29:11.394Z,37.29
2023-07-25T20:32:17.931Z,37.38
2023-07-25T20:35:23.013Z,37.75
2023-07-25T20:38:29.060Z,37.94
2023-07-25T20:41:35.017Z,37.92
2023-07-25T20:44:40.309Z,37.92
2023-07-25T20:47:45.065Z,38.06
2023-07-25T20:50:51.351Z,38.23
2023-07-25T20:53:57.286Z,38.20
2023-07-25T20:57:03.541Z,38.49
2023-07-25T21:00:09.828Z,38.73
2023-07-25T21:03:16.518Z,39.04
2023-07-25T21:06:22.029Z,38.88
2023-07-25T21:09:27.971Z,39.05
2023-07-25T21:12:33.714Z,39.01
2023-07-25T21:15:39.520Z,39.11
2023-07-25T21:18:45.226Z,39.13
2023-07-25T21:21:52.102Z,38.78
2023-07-25T21:24:58.606Z,38.71
2023-07-25T21:28:05.262Z,38.45
2023-07-25T21:31:12.945Z,38.38
2023-07-25T21:34:18.498Z,38.27
2023-07-25T21:37:25.170Z,37.80
2023-07-25T21:40:32.033Z,37.79
2023-07-25T21:43:38.539Z,37.98
2023-07-25T21:46:40.005Z,37.86
2023-07-25T21:49:45.088Z,37.95
2023-07-25T21:52:51.875Z,38.30
2023-07-25T21:55:56.567Z,38.52
2023-07-25T21:59:02.224Z,38.20
2023-07-25T22:02:09.688Z,38.49
2023-07-25T22:05:15.474Z,38.94
2023-07-25T22:08:13.969Z,38.94
2023-07-25T22:11:20.472Z,38.91
2023-07-25T22:14:26.124Z,38.80
2023-07-25T22:17:25.055Z,39.21
2023-07-25T22:20:38.330Z,39.70
2023-07-25T22:23:37.446Z,39.70
2023-07-25T22:26:43.992Z,40.13
2023-07-25T22:29:49.394Z,39.49
2023-07-25T22:32:56.023Z,40.11
2023-07-25T22:36:02.708Z,40.71
2023-07-25T22:39:09.570Z,40.82
2023-07-25T22:42:14.798Z,40.40
2023-07-25T22:45:20.528Z,39.86
2023-07-25T22:48:18.884Z,40.32
2023-07-25T22:51:18.903Z,40.54
2023-07-25T22:54:23.534Z,40.34
2023-07-25T22:57:28.793Z,40.05
2023-07-25T23:00:34.482Z,40.43
2023-07-25T23:03:43.273Z,40.86
2023-07-25T23:06:48.940Z,41.04
2023-07-25T23:09:55.715Z,41.16
2023-07-25T23:13:08.808Z,41.42
2023-07-25T23:16:14.673Z,41.20
2023-07-25T23:19:20.847Z,40.45
2023-07-25T23:22:26.365Z,41.22
2023-07-25T23:25:32.175Z,41.43
2023-07-25T23:28:38.805Z,41.46
2023-07-25T23:31:44.793Z,41.54
2023-07-25T23:35:02.392Z,41.73
2023-07-25T23:38:07.644Z,41.58
2023-07-25T23:41:14.553Z,41.60
2023-07-25T23:44:21.782Z,41.57
2023-07-25T23:47:27.439Z,41.45
2023-07-25T23:50:34.251Z,42.05
2023-07-25T23:53:40.887Z,41.61
2023-07-25T23:56:48.620Z,41.89
2023-07-25T23:59:55.233Z,41.99
